sensor_id;sensor_type;location;lat;lon;timestamp;pressure;altitude;pressure_sealevel;temperature;humidity
13732;BME280;6937;56.096;12.664;2023-01-28T00:02:02;102505.41;;;-0.41;100.00
13732;BME280;6937;56.096;12.664;2023-01-28T00:04:28;102494.00;;;-0.43;100.00
13732;BME280;6937;56.096;12.664;2023-01-28T00:06:53;102496.63;;;-0.37;100.00
13732;BME280;6937;56.096;12.664;2023-01-28T00:09:18;102496.63;;;-0.40;100.00
13732;BME280;6937;56.096;12.664;2023-01-28T00:11:44;102506.25;;;-0.41;100.00
13732;BME280;6937;56.096;12.664;2023-01-28T00:14:10;102501.88;;;-0.43;100.00
13732;BME280;6937;56.096;12.664;2023-01-28T00:16:36;102492.25;;;-0.47;100.00
13732;BME280;6937;56.096;12.664;2023-01-28T00:19:02;102498.41;;;-0.38;100.00
13732;BME280;6937;56.096;12.664;2023-01-28T00:21:27;102493.13;;;-0.36;100.00
13732;BME280;6937;56.096;12.664;2023-01-28T00:23:54;102500.13;;;-0.29;100.00
13732;BME280;6937;56.096;12.664;2023-01-28T00:26:21;102481.75;;;-0.28;100.00
13732;BME280;6937;56.096;12.664;2023-01-28T00:28:46;102475.63;;;-0.24;100.00
13732;BME280;6937;56.096;12.664;2023-01-28T00:31:17;102472.13;;;-0.27;100.00
13732;BME280;6937;56.096;12.664;2023-01-28T00:33:44;102480.00;;;-0.24;100.00
13732;BME280;6937;56.096;12.664;2023-01-28T00:36:11;102484.38;;;-0.23;100.00
13732;BME280;6937;56.096;12.664;2023-01-28T00:38:37;102469.50;;;-0.27;100.00
13732;BME280;6937;56.096;12.664;2023-01-28T00:41:10;102467.75;;;-0.24;100.00
13732;BME280;6937;56.096;12.664;2023-01-28T00:43:36;102471.22;;;-0.22;100.00
13732;BME280;6937;56.096;12.664;2023-01-28T00:46:03;102462.47;;;-0.16;100.00
13732;BME280;6937;56.096;12.664;2023-01-28T00:48:28;102451.94;;;-0.15;100.00
13732;BME280;6937;56.096;12.664;2023-01-28T00:50:54;102445.84;;;-0.21;100.00
13732;BME280;6937;56.096;12.664;2023-01-28T00:53:19;102462.47;;;-0.16;100.00
13732;BME280;6937;56.096;12.664;2023-01-28T00:55:44;102456.34;;;-0.09;100.00
13732;BME280;6937;56.096;12.664;2023-01-28T00:58:10;102439.69;;;-0.14;100.00
13732;BME280;6937;56.096;12.664;2023-01-28T01:00:35;102442.31;;;-0.05;100.00
13732;BME280;6937;56.096;12.664;2023-01-28T01:03:00;102446.69;;;-0.04;100.00
13732;BME280;6937;56.096;12.664;2023-01-28T01:05:26;102435.31;;;-0.09;100.00
13732;BME280;6937;56.096;12.664;2023-01-28T01:07:53;102428.28;;;-0.03;100.00
13732;BME280;6937;56.096;12.664;2023-01-28T01:10:19;102416.91;;;-0.02;100.00
13732;BME280;6937;56.096;12.664;2023-01-28T01:12:46;102416.91;;;-0.02;100.00
13732;BME280;6937;56.096;12.664;2023-01-28T01:15:11;102423.91;;;0.01;100.00
13732;BME280;6937;56.096;12.664;2023-01-28T01:17:39;102397.63;;;-0.04;100.00
13732;BME280;6937;56.096;12.664;2023-01-28T01:20:08;102399.38;;;-0.01;100.00
13732;BME280;6937;56.096;12.664;2023-01-28T01:22:34;102408.16;;;-0.01;100.00
13732;BME280;6937;56.096;12.664;2023-01-28T01:25:00;102394.16;;;-0.09;100.00
13732;BME280;6937;56.096;12.664;2023-01-28T01:27:26;102406.41;;;0.00;100.00
13732;BME280;6937;56.096;12.664;2023-01-28T01:29:51;102389.75;;;-0.07;100.00
13732;BME280;6937;56.096;12.664;2023-01-28T01:32:16;102390.63;;;0.03;100.00
13732;BME280;6937;56.096;12.664;2023-01-28T01:34:43;102391.47;;;0.00;100.00
13732;BME280;6937;56.096;12.664;2023-01-28T01:37:08;102392.34;;;0.01;100.00
13732;BME280;6937;56.096;12.664;2023-01-28T01:39:35;102387.09;;;-0.04;100.00
13732;BME280;6937;56.096;12.664;2023-01-28T01:42:00;102376.63;;;-0.13;100.00
13732;BME280;6937;56.096;12.664;2023-01-28T01:47:23;102372.28;;;-0.29;100.00
13732;BME280;6937;56.096;12.664;2023-01-28T01:49:50;102371.41;;;-0.28;100.00
13732;BME280;6937;56.096;12.664;2023-01-28T01:52:19;102369.66;;;-0.33;100.00
13732;BME280;6937;56.096;12.664;2023-01-28T01:54:51;102357.41;;;-0.36;100.00
13732;BME280;6937;56.096;12.664;2023-01-28T01:57:22;102350.41;;;-0.37;100.00
13732;BME280;6937;56.096;12.664;2023-01-28T01:59:49;102367.03;;;-0.33;100.00
13732;BME280;6937;56.096;12.664;2023-01-28T02:02:15;102363.53;;;-0.32;100.00
13732;BME280;6937;56.096;12.664;2023-01-28T02:04:42;102353.91;;;-0.32;100.00
13732;BME280;6937;56.096;12.664;2023-01-28T02:07:10;102346.03;;;-0.33;100.00
13732;BME280;6937;56.096;12.664;2023-01-28T02:09:36;102343.41;;;-0.36;100.00
13732;BME280;6937;56.096;12.664;2023-01-28T02:12:15;102346.03;;;-0.33;100.00
13732;BME280;6937;56.096;12.664;2023-01-28T02:14:49;102353.03;;;-0.32;100.00
13732;BME280;6937;56.096;12.664;2023-01-28T02:17:16;102353.06;;;-0.34;100.00
13732;BME280;6937;56.096;12.664;2023-01-28T02:19:49;102353.91;;;-0.27;100.00
13732;BME280;6937;56.096;12.664;2023-01-28T02:25:07;102343.38;;;-0.17;100.00
13732;BME280;6937;56.096;12.664;2023-01-28T02:28:11;102340.72;;;-0.18;100.00
13732;BME280;6937;56.096;12.664;2023-01-28T02:30:41;102333.72;;;-0.16;100.00
13732;BME280;6937;56.096;12.664;2023-01-28T02:33:17;102317.97;;;-0.16;100.00
13732;BME280;6937;56.096;12.664;2023-01-28T02:35:54;102311.81;;;-0.18;100.00
13732;BME280;6937;56.096;12.664;2023-01-28T02:38:25;102295.25;;;-0.26;100.00
13732;BME280;6937;56.096;12.664;2023-01-28T02:40:59;102302.22;;;-0.24;100.00
13732;BME280;6937;56.096;12.664;2023-01-28T02:54:31;102274.22;;;-0.23;100.00
13732;BME280;6937;56.096;12.664;2023-01-28T02:57:11;102262.81;;;-0.24;100.00
13732;BME280;6937;56.096;12.664;2023-01-28T03:04:49;102270.66;;;-0.15;100.00
13732;BME280;6937;56.096;12.664;2023-01-28T03:07:20;102275.06;;;-0.17;100.00
13732;BME280;6937;56.096;12.664;2023-01-28T03:09:47;102261.06;;;-0.23;100.00
13732;BME280;6937;56.096;12.664;2023-01-28T03:12:18;102252.28;;;-0.16;100.00
13732;BME280;6937;56.096;12.664;2023-01-28T03:15:24;102244.41;;;-0.19;100.00
13732;BME280;6937;56.096;12.664;2023-01-28T03:18:20;102252.31;;;-0.19;100.00
13732;BME280;6937;56.096;12.664;2023-01-28T03:21:14;102244.41;;;-0.22;100.00
13732;BME280;6937;56.096;12.664;2023-01-28T03:24:15;102248.78;;;-0.21;100.00
13732;BME280;6937;56.096;12.664;2023-01-28T03:27:27;102243.56;;;-0.24;100.00
13732;BME280;6937;56.096;12.664;2023-01-28T03:30:16;102236.53;;;-0.22;100.00
13732;BME280;6937;56.096;12.664;2023-01-28T03:33:02;102234.81;;;-0.26;100.00
13732;BME280;6937;56.096;12.664;2023-01-28T03:35:48;102236.56;;;-0.28;100.00
13732;BME280;6937;56.096;12.664;2023-01-28T03:38:32;102233.94;;;-0.33;100.00
13732;BME280;6937;56.096;12.664;2023-01-28T03:41:08;102219.13;;;-0.41;100.00
13732;BME280;6937;56.096;12.664;2023-01-28T03:43:34;102212.97;;;-0.40;100.00
13732;BME280;6937;56.096;12.664;2023-01-28T03:45:59;102224.31;;;-0.32;100.00
13732;BME280;6937;56.096;12.664;2023-01-28T03:48:26;102215.59;;;-0.36;100.00
13732;BME280;6937;56.096;12.664;2023-01-28T03:50:54;102207.72;;;-0.45;100.00
13732;BME280;6937;56.096;12.664;2023-01-28T03:53:20;102219.09;;;-0.40;100.00
13732;BME280;6937;56.096;12.664;2023-01-28T03:55:48;102209.47;;;-0.44;100.00
13732;BME280;6937;56.096;12.664;2023-01-28T03:58:15;102201.66;;;-0.50;100.00
13732;BME280;6937;56.096;12.664;2023-01-28T04:00:41;102207.72;;;-0.43;100.00
13732;BME280;6937;56.096;12.664;2023-01-28T04:03:17;102206.00;;;-0.43;100.00
13732;BME280;6937;56.096;12.664;2023-01-28T04:06:00;102186.75;;;-0.51;100.00
13732;BME280;6937;56.096;12.664;2023-01-28T04:08:26;102177.13;;;-0.52;100.00
13732;BME280;6937;56.096;12.664;2023-01-28T04:10:51;102176.22;;;-0.43;100.00
13732;BME280;6937;56.096;12.664;2023-01-28T04:13:17;102171.88;;;-0.49;100.00
13732;BME280;6937;56.096;12.664;2023-01-28T04:15:43;102184.09;;;-0.39;100.00
13732;BME280;6937;56.096;12.664;2023-01-28T04:18:09;102172.69;;;-0.35;100.00
13732;BME280;6937;56.096;12.664;2023-01-28T04:20:35;102168.31;;;-0.36;100.00
13732;BME280;6937;56.096;12.664;2023-01-28T04:23:01;102167.44;;;-0.36;100.00
13732;BME280;6937;56.096;12.664;2023-01-28T04:25:27;102153.47;;;-0.46;100.00
13732;BME280;6937;56.096;12.664;2023-01-28T04:27:52;102166.56;;;-0.40;100.00
13732;BME280;6937;56.096;12.664;2023-01-28T04:30:18;102157.84;;;-0.42;100.00
13732;BME280;6937;56.096;12.664;2023-01-28T04:32:45;102157.81;;;-0.39;100.00
13732;BME280;6937;56.096;12.664;2023-01-28T04:35:10;102151.72;;;-0.44;100.00
13732;BME280;6937;56.096;12.664;2023-01-28T04:37:36;102128.97;;;-0.48;100.00
13732;BME280;6937;56.096;12.664;2023-01-28T04:40:01;102139.47;;;-0.48;100.00
13732;BME280;6937;56.096;12.664;2023-01-28T04:42:26;102128.13;;;-0.53;100.00
13732;BME280;6937;56.096;12.664;2023-01-28T04:44:52;102142.97;;;-0.46;100.00
13732;BME280;6937;56.096;12.664;2023-01-28T04:47:17;102130.72;;;-0.45;100.00
13732;BME280;6937;56.096;12.664;2023-01-28T04:49:44;102135.06;;;-0.40;100.00
13732;BME280;6937;56.096;12.664;2023-01-28T04:52:09;102122.81;;;-0.42;100.00
13732;BME280;6937;56.096;12.664;2023-01-28T04:54:35;102128.03;;;-0.36;100.00
13732;BME280;6937;56.096;12.664;2023-01-28T04:57:00;102102.66;;;-0.36;100.00
13732;BME280;6937;56.096;12.664;2023-01-28T04:59:26;102106.16;;;-0.34;100.00
13732;BME280;6937;56.096;12.664;2023-01-28T05:01:51;102121.91;;;-0.34;100.00
13732;BME280;6937;56.096;12.664;2023-01-28T05:04:16;102112.28;;;-0.35;100.00
13732;BME280;6937;56.096;12.664;2023-01-28T05:06:42;102117.53;;;-0.36;100.00
13732;BME280;6937;56.096;12.664;2023-01-28T05:09:07;102110.56;;;-0.39;100.00
13732;BME280;6937;56.096;12.664;2023-01-28T05:11:33;102107.03;;;-0.41;100.00
13732;BME280;6937;56.096;12.664;2023-01-28T05:13:58;102110.56;;;-0.45;100.00
13732;BME280;6937;56.096;12.664;2023-01-28T05:16:23;102107.19;;;-0.61;100.00
13732;BME280;6937;56.096;12.664;2023-01-28T05:18:49;102089.72;;;-0.69;100.00
13732;BME280;6937;56.096;12.664;2023-01-28T05:21:16;102101.03;;;-0.60;100.00
13732;BME280;6937;56.096;12.664;2023-01-28T05:23:42;102107.19;;;-0.61;100.00
13732;BME280;6937;56.096;12.664;2023-01-28T05:26:07;102098.41;;;-0.58;100.00
13732;BME280;6937;56.096;12.664;2023-01-28T05:28:33;102108.00;;;-0.54;100.00
13732;BME280;6937;56.096;12.664;2023-01-28T05:31:03;102117.59;;;-0.49;100.00
13732;BME280;6937;56.096;12.664;2023-01-28T05:33:29;102097.50;;;-0.53;100.00
13732;BME280;6937;56.096;12.664;2023-01-28T05:35:54;102090.44;;;-0.44;100.00
13732;BME280;6937;56.096;12.664;2023-01-28T05:38:20;102100.94;;;-0.43;100.00
13732;BME280;6937;56.096;12.664;2023-01-28T05:40:46;102092.19;;;-0.43;100.00
13732;BME280;6937;56.096;12.664;2023-01-28T05:43:11;102084.31;;;-0.42;100.00
13732;BME280;6937;56.096;12.664;2023-01-28T05:45:37;102084.31;;;-0.45;100.00
13732;BME280;6937;56.096;12.664;2023-01-28T05:48:02;102091.34;;;-0.47;100.00
13732;BME280;6937;56.096;12.664;2023-01-28T05:50:28;102093.09;;;-0.47;100.00
13732;BME280;6937;56.096;12.664;2023-01-28T05:52:53;102088.72;;;-0.49;100.00
13732;BME280;6937;56.096;12.664;2023-01-28T05:55:18;102070.31;;;-0.47;100.00
13732;BME280;6937;56.096;12.664;2023-01-28T05:57:44;102072.06;;;-0.47;100.00
13732;BME280;6937;56.096;12.664;2023-01-28T06:00:10;102082.56;;;-0.47;100.00
13732;BME280;6937;56.096;12.664;2023-01-28T06:02:35;102079.94;;;-0.43;100.00
13732;BME280;6937;56.096;12.664;2023-01-28T06:05:00;102072.94;;;-0.42;100.00
13732;BME280;6937;56.096;12.664;2023-01-28T06:07:26;102055.41;;;-0.43;100.00
13732;BME280;6937;56.096;12.664;2023-01-28T06:09:51;102052.81;;;-0.46;100.00
13732;BME280;6937;56.096;12.664;2023-01-28T06:12:16;102045.81;;;-0.47;100.00
13732;BME280;6937;56.096;12.664;2023-01-28T06:14:42;102057.13;;;-0.36;100.00
13732;BME280;6937;56.096;12.664;2023-01-28T06:17:07;102044.84;;;-0.33;100.00
13732;BME280;6937;56.096;12.664;2023-01-28T06:19:33;102039.59;;;-0.37;100.00
13732;BME280;6937;56.096;12.664;2023-01-28T06:21:58;102011.63;;;-0.40;100.00
13732;BME280;6937;56.096;12.664;2023-01-28T06:24:23;102009.00;;;-0.38;100.00
13732;BME280;6937;56.096;12.664;2023-01-28T06:26:49;102017.69;;;-0.30;100.00
13732;BME280;6937;56.096;12.664;2023-01-28T06:29:14;102027.25;;;-0.22;100.00
13732;BME280;6937;56.096;12.664;2023-01-28T06:31:40;102022.84;;;-0.20;100.00
13732;BME280;6937;56.096;12.664;2023-01-28T06:34:05;102005.25;;;-0.09;100.00
13732;BME280;6937;56.096;12.664;2023-01-28T06:36:30;102002.63;;;-0.10;100.00
13732;BME280;6937;56.096;12.664;2023-01-28T06:38:56;102019.19;;;-0.01;100.00
13732;BME280;6937;56.096;12.664;2023-01-28T06:41:21;102027.00;;;0.04;100.00
13732;BME280;6937;56.096;12.664;2023-01-28T06:43:46;102034.88;;;0.09;100.00
13732;BME280;6937;56.096;12.664;2023-01-28T06:46:12;102013.88;;;0.04;100.00
13732;BME280;6937;56.096;12.664;2023-01-28T06:48:37;102020.81;;;0.14;100.00
13732;BME280;6937;56.096;12.664;2023-01-28T06:51:03;102006.88;;;0.05;100.00
13732;BME280;6937;56.096;12.664;2023-01-28T06:53:28;102017.38;;;0.05;100.00
13732;BME280;6937;56.096;12.664;2023-01-28T06:55:54;102018.28;;;0.02;100.00
13732;BME280;6937;56.096;12.664;2023-01-28T06:58:19;102025.25;;;0.06;100.00
13732;BME280;6937;56.096;12.664;2023-01-28T07:00:44;102025.22;;;0.09;100.00
13732;BME280;6937;56.096;12.664;2023-01-28T07:03:10;102032.22;;;0.10;100.00
13732;BME280;6937;56.096;12.664;2023-01-28T07:05:35;102002.47;;;0.05;100.00
13732;BME280;6937;56.096;12.664;2023-01-28T07:08:01;102023.44;;;0.13;100.00
13732;BME280;6937;56.096;12.664;2023-01-28T07:10:27;102022.53;;;0.17;100.00
13732;BME280;6937;56.096;12.664;2023-01-28T07:12:52;102016.34;;;0.22;100.00
13732;BME280;6937;56.096;12.664;2023-01-28T07:15:18;102026.84;;;0.25;100.00
13732;BME280;6937;56.096;12.664;2023-01-28T07:17:44;102026.78;;;0.30;100.00
13732;BME280;6937;56.096;12.664;2023-01-28T07:20:12;102036.38;;;0.34;100.00
13732;BME280;6937;56.096;12.664;2023-01-28T07:22:42;102025.84;;;0.35;100.00
13732;BME280;6937;56.096;12.664;2023-01-28T07:25:09;102027.56;;;0.39;100.00
13732;BME280;6937;56.096;12.664;2023-01-28T07:27:35;102036.28;;;0.41;100.00
13732;BME280;6937;56.096;12.664;2023-01-28T07:30:01;102037.13;;;0.46;100.00
13732;BME280;6937;56.096;12.664;2023-01-28T07:32:26;102031.97;;;0.37;100.00
13732;BME280;6937;56.096;12.664;2023-01-28T07:34:53;102028.44;;;0.38;100.00
13732;BME280;6937;56.096;12.664;2023-01-28T07:37:19;102039.72;;;0.49;100.00
13732;BME280;6937;56.096;12.664;2023-01-28T07:39:44;102040.59;;;0.52;100.00
13732;BME280;6937;56.096;12.664;2023-01-28T07:42:09;102044.94;;;0.53;100.00
13732;BME280;6937;56.096;12.664;2023-01-28T07:44:35;102042.31;;;0.56;100.00
13732;BME280;6937;56.096;12.664;2023-01-28T07:47:02;102029.97;;;0.59;100.00
13732;BME280;6937;56.096;12.664;2023-01-28T07:49:28;102031.69;;;0.62;100.00
13732;BME280;6937;56.096;12.664;2023-01-28T07:51:53;102031.69;;;0.62;100.00
13732;BME280;6937;56.096;12.664;2023-01-28T07:54:19;102036.03;;;0.66;100.00
13732;BME280;6937;56.096;12.664;2023-01-28T07:56:44;102033.41;;;0.66;100.00
13732;BME280;6937;56.096;12.664;2023-01-28T07:59:09;102021.19;;;0.62;100.00
13732;BME280;6937;56.096;12.664;2023-01-28T08:01:35;102027.31;;;0.61;100.00
13732;BME280;6937;56.096;12.664;2023-01-28T08:04:00;102028.22;;;0.57;100.00
13732;BME280;6937;56.096;12.664;2023-01-28T08:06:27;102027.31;;;0.61;100.00
13732;BME280;6937;56.096;12.664;2023-01-28T08:08:53;102029.06;;;0.60;100.00
13732;BME280;6937;56.096;12.664;2023-01-28T08:11:18;102043.94;;;0.64;100.00
13732;BME280;6937;56.096;12.664;2023-01-28T08:13:43;102032.53;;;0.65;100.00
13732;BME280;6937;56.096;12.664;2023-01-28T08:16:09;102031.66;;;0.65;100.00
13732;BME280;6937;56.096;12.664;2023-01-28T08:18:34;102030.78;;;0.66;100.00
13732;BME280;6937;56.096;12.664;2023-01-28T08:20:59;102036.88;;;0.71;100.00
13732;BME280;6937;56.096;12.664;2023-01-28T08:23:25;102030.69;;;0.73;100.00
13732;BME280;6937;56.096;12.664;2023-01-28T08:25:52;102021.88;;;0.77;100.00
13732;BME280;6937;56.096;12.664;2023-01-28T08:28:17;102025.28;;;0.85;100.00
13732;BME280;6937;56.096;12.664;2023-01-28T08:30:44;102012.97;;;0.87;100.00
13732;BME280;6937;56.096;12.664;2023-01-28T08:33:11;102010.31;;;0.89;100.00
13732;BME280;6937;56.096;12.664;2023-01-28T08:35:37;102003.28;;;0.91;100.00
13732;BME280;6937;56.096;12.664;2023-01-28T08:38:04;101999.75;;;0.93;100.00
13732;BME280;6937;56.096;12.664;2023-01-28T08:40:30;102010.28;;;0.93;100.00
13732;BME280;6937;56.096;12.664;2023-01-28T08:42:55;102002.34;;;0.96;100.00
13732;BME280;6937;56.096;12.664;2023-01-28T08:45:23;101995.31;;;0.95;100.00
13732;BME280;6937;56.096;12.664;2023-01-28T08:47:57;101985.66;;;0.96;100.00
13732;BME280;6937;56.096;12.664;2023-01-28T08:50:25;101996.25;;;0.91;100.00
13732;BME280;6937;56.096;12.664;2023-01-28T08:53:02;102000.63;;;0.92;100.00
13732;BME280;6937;56.096;12.664;2023-01-28T08:55:28;101998.97;;;0.85;100.00
13732;BME280;6937;56.096;12.664;2023-01-28T08:57:54;102004.09;;;0.94;100.00
13732;BME280;6937;56.096;12.664;2023-01-28T09:00:20;102006.72;;;0.96;100.00
13732;BME280;6937;56.096;12.664;2023-01-28T09:02:46;101992.69;;;0.97;100.00
13732;BME280;6937;56.096;12.664;2023-01-28T09:05:14;101978.75;;;0.89;100.00
13732;BME280;6937;56.096;12.664;2023-01-28T09:07:40;101980.41;;;0.96;100.00
13732;BME280;6937;56.096;12.664;2023-01-28T09:10:05;101983.84;;;1.01;100.00
13732;BME280;6937;56.096;12.664;2023-01-28T09:12:31;101961.06;;;0.98;100.00
13732;BME280;6937;56.096;12.664;2023-01-28T09:14:57;101975.03;;;1.02;100.00
13732;BME280;6937;56.096;12.664;2023-01-28T09:17:22;101995.16;;;1.06;100.00
13732;BME280;6937;56.096;12.664;2023-01-28T09:19:48;101990.78;;;1.05;100.00
13732;BME280;6937;56.096;12.664;2023-01-28T09:22:14;101990.69;;;1.13;100.00
13732;BME280;6937;56.096;12.664;2023-01-28T09:24:39;101988.03;;;1.16;100.00
13732;BME280;6937;56.096;12.664;2023-01-28T09:27:05;101974.88;;;1.16;100.00
13732;BME280;6937;56.096;12.664;2023-01-28T09:29:33;101964.28;;;1.19;100.00
13732;BME280;6937;56.096;12.664;2023-01-28T09:31:58;101951.97;;;1.21;100.00
13732;BME280;6937;56.096;12.664;2023-01-28T09:34:23;101935.41;;;1.13;100.00
13732;BME280;6937;56.096;12.664;2023-01-28T09:36:49;101951.91;;;1.24;100.00
13732;BME280;6937;56.096;12.664;2023-01-28T09:39:14;101960.69;;;1.24;100.00
13732;BME280;6937;56.096;12.664;2023-01-28T09:47:09;101932.53;;;1.29;100.00
13732;BME280;6937;56.096;12.664;2023-01-28T09:49:41;101941.19;;;1.37;100.00
13732;BME280;6937;56.096;12.664;2023-01-28T09:52:12;101953.47;;;1.38;100.00
13732;BME280;6937;56.096;12.664;2023-01-28T09:54:44;101947.25;;;1.41;100.00
13732;BME280;6937;56.096;12.664;2023-01-28T09:57:21;101943.66;;;1.46;100.00
13732;BME280;6937;56.096;12.664;2023-01-28T09:59:47;101943.66;;;1.46;100.00
13732;BME280;6937;56.096;12.664;2023-01-28T10:05:19;101926.94;;;1.49;100.00
13732;BME280;6937;56.096;12.664;2023-01-28T10:08:00;101923.44;;;1.49;100.00
13732;BME280;6937;56.096;12.664;2023-01-28T10:10:49;101918.16;;;1.49;100.00
13732;BME280;6937;56.096;12.664;2023-01-28T10:16:05;101909.25;;;1.57;100.00
13732;BME280;6937;56.096;12.664;2023-01-28T10:18:54;101898.72;;;1.56;100.00
13732;BME280;6937;56.096;12.664;2023-01-28T10:21:36;101916.16;;;1.63;100.00
13732;BME280;6937;56.096;12.664;2023-01-28T10:24:33;101899.47;;;1.62;100.00
13732;BME280;6937;56.096;12.664;2023-01-28T10:26:58;101896.69;;;1.71;100.00
13732;BME280;6937;56.096;12.664;2023-01-28T10:29:26;101900.16;;;1.75;100.00
13732;BME280;6937;56.096;12.664;2023-01-28T10:31:58;101887.91;;;1.71;100.00
13732;BME280;6937;56.096;12.664;2023-01-28T10:34:26;101884.41;;;1.72;100.00
13732;BME280;6937;56.096;12.664;2023-01-28T10:36:52;101888.66;;;1.79;100.00
13732;BME280;6937;56.096;12.664;2023-01-28T10:39:20;101883.31;;;1.83;100.00
13732;BME280;6937;56.096;12.664;2023-01-28T10:41:46;101898.19;;;1.86;100.00
13732;BME280;6937;56.096;12.664;2023-01-28T10:44:29;101891.97;;;1.88;100.00
13732;BME280;6937;56.096;12.664;2023-01-28T10:46:58;101895.41;;;1.92;100.00
13732;BME280;6937;56.096;12.664;2023-01-28T10:49:28;101889.19;;;1.98;100.00
13732;BME280;6937;56.096;12.664;2023-01-28T10:51:55;101872.56;;;1.92;100.00
13732;BME280;6937;56.096;12.664;2023-01-28T10:54:22;101879.38;;;2.04;100.00
13732;BME280;6937;56.096;12.664;2023-01-28T10:57:01;101868.81;;;2.04;100.00
13732;BME280;6937;56.096;12.664;2023-01-28T10:59:29;101855.72;;;2.01;100.00
13732;BME280;6937;56.096;12.664;2023-01-28T11:01:57;101850.38;;;2.04;100.00
13732;BME280;6937;56.096;12.664;2023-01-28T11:04:29;101862.59;;;2.10;100.00
13732;BME280;6937;56.096;12.664;2023-01-28T11:09:26;101861.78;;;2.05;100.00
13732;BME280;6937;56.096;12.664;2023-01-28T11:11:52;101843.44;;;2.00;100.00
13732;BME280;6937;56.096;12.664;2023-01-28T11:14:19;101853.00;;;2.06;100.00
13732;BME280;6937;56.096;12.664;2023-01-28T11:16:45;101839.75;;;2.07;100.00
13732;BME280;6937;56.096;12.664;2023-01-28T11:19:11;101864.22;;;2.14;100.00
13732;BME280;6937;56.096;12.664;2023-01-28T11:21:36;101864.19;;;2.17;100.00
13732;BME280;6937;56.096;12.664;2023-01-28T11:24:13;101854.47;;;2.19;100.00
13732;BME280;6937;56.096;12.664;2023-01-28T11:26:43;101852.69;;;2.19;100.00
13732;BME280;6937;56.096;12.664;2023-01-28T11:29:39;101855.34;;;2.18;100.00
13732;BME280;6937;56.096;12.664;2023-01-28T11:32:16;101850.16;;;2.15;100.00
13732;BME280;6937;56.096;12.664;2023-01-28T11:34:51;101844.94;;;2.13;100.00
13732;BME280;6937;56.096;12.664;2023-01-28T11:37:19;101848.31;;;2.20;100.00
13732;BME280;6937;56.096;12.664;2023-01-28T11:39:46;101834.25;;;2.19;100.00
13732;BME280;6937;56.096;12.664;2023-01-28T11:42:18;101828.81;;;2.25;100.00
13732;BME280;6937;56.096;12.664;2023-01-28T11:44:45;101827.00;;;2.29;100.00
13732;BME280;6937;56.096;12.664;2023-01-28T11:47:39;101825.22;;;2.29;100.00
13732;BME280;6937;56.096;12.664;2023-01-28T11:50:23;101803.38;;;2.24;100.00
13732;BME280;6937;56.096;12.664;2023-01-28T11:53:02;101825.06;;;2.37;100.00
13732;BME280;6937;56.096;12.664;2023-01-28T11:58:26;101836.38;;;2.43;100.00
13732;BME280;6937;56.096;12.664;2023-01-28T12:06:24;101824.63;;;2.57;100.00
13732;BME280;6937;56.096;12.664;2023-01-28T12:09:03;101833.25;;;2.65;100.00
13732;BME280;6937;56.096;12.664;2023-01-28T12:14:55;101824.38;;;2.67;100.00
13732;BME280;6937;56.096;12.664;2023-01-28T12:17:41;101821.75;;;2.67;100.00
13732;BME280;6937;56.096;12.664;2023-01-28T12:25:35;101800.72;;;2.63;100.00
13732;BME280;6937;56.096;12.664;2023-01-28T12:31:13;101820.94;;;2.65;100.00
13732;BME280;6937;56.096;12.664;2023-01-28T12:34:04;101817.50;;;2.62;100.00
13732;BME280;6937;56.096;12.664;2023-01-28T12:36:40;101803.34;;;2.64;100.00
13732;BME280;6937;56.096;12.664;2023-01-28T12:45:03;101770.53;;;2.74;100.00
13732;BME280;6937;56.096;12.664;2023-01-28T12:47:38;101766.00;;;2.81;100.00
13732;BME280;6937;56.096;12.664;2023-01-28T12:50:12;101765.06;;;2.83;100.00
13732;BME280;6937;56.096;12.664;2023-01-28T12:52:47;101760.53;;;2.88;100.00
13732;BME280;6937;56.096;12.664;2023-01-28T12:55:20;101764.81;;;2.92;100.00
13732;BME280;6937;56.096;12.664;2023-01-28T12:57:50;101762.16;;;2.94;100.00
13732;BME280;6937;56.096;12.664;2023-01-28T13:03:20;101730.25;;;3.03;100.00
13732;BME280;6937;56.096;12.664;2023-01-28T13:06:01;101726.72;;;3.03;100.00
13732;BME280;6937;56.096;12.664;2023-01-28T13:08:30;101716.16;;;3.03;100.00
13732;BME280;6937;56.096;12.664;2023-01-28T13:10:57;101722.22;;;3.06;100.00
13732;BME280;6937;56.096;12.664;2023-01-28T13:13:32;101716.09;;;3.04;100.00
13732;BME280;6937;56.096;12.664;2023-01-28T13:16:00;101721.16;;;3.13;100.00
13732;BME280;6937;56.096;12.664;2023-01-28T13:21:28;101729.88;;;3.15;100.00
13732;BME280;6937;56.096;12.664;2023-01-28T13:24:06;101729.88;;;3.15;100.00
13732;BME280;6937;56.096;12.664;2023-01-28T13:31:51;101707.94;;;3.13;100.00
13732;BME280;6937;56.096;12.664;2023-01-28T13:34:31;101709.72;;;3.13;100.00
13732;BME280;6937;56.096;12.664;2023-01-28T13:37:00;101713.44;;;3.06;100.00
13732;BME280;6937;56.096;12.664;2023-01-28T13:39:28;101724.03;;;3.04;100.00
13732;BME280;6937;56.096;12.664;2023-01-28T13:44:33;101701.22;;;3.02;100.00
13732;BME280;6937;56.096;12.664;2023-01-28T13:49:47;101689.88;;;2.98;100.00
13732;BME280;6937;56.096;12.664;2023-01-28T13:52:19;101681.97;;;2.97;100.00
13732;BME280;6937;56.096;12.664;2023-01-28T13:55:23;101684.69;;;2.93;100.00
13732;BME280;6937;56.096;12.664;2023-01-28T14:03:54;101661.00;;;2.92;100.00
13732;BME280;6937;56.096;12.664;2023-01-28T14:12:13;101673.16;;;2.98;100.00
13732;BME280;6937;56.096;12.664;2023-01-28T14:15:15;101663.50;;;2.97;100.00
13732;BME280;6937;56.096;12.664;2023-01-28T14:17:48;101647.81;;;2.92;100.00
13732;BME280;6937;56.096;12.664;2023-01-28T14:20:33;101655.50;;;3.00;100.00
13732;BME280;6937;56.096;12.664;2023-01-28T14:23:05;101650.25;;;3.00;100.00
13732;BME280;6937;56.096;12.664;2023-01-28T14:26:34;101634.44;;;2.98;100.00
13732;BME280;6937;56.096;12.664;2023-01-28T14:31:19;101652.69;;;3.06;100.00